sensor_id;sensor_type;location;lat;lon;timestamp;pressure;altitude;pressure_sealevel;temperature;humidity
68226;BME280;55045;49.410;11.030;2023-07-31T00:02:04;98023.75;;;16.35;100.00
68226;BME280;55045;49.410;11.030;2023-07-31T00:05:08;98018.03;;;16.41;100.00
68226;BME280;55045;49.410;11.030;2023-07-31T00:08:14;98010.06;;;16.43;100.00
68226;BME280;55045;49.410;11.030;2023-07-31T00:11:17;98001.38;;;16.42;100.00
68226;BME280;55045;49.410;11.030;2023-07-31T00:14:21;98006.03;;;16.39;100.00
68226;BME280;55045;49.410;11.030;2023-07-31T00:17:24;98003.56;;;16.49;100.00
68226;BME280;55045;49.410;11.030;2023-07-31T00:20:28;98001.78;;;16.49;100.00
68226;BME280;55045;49.410;11.030;2023-07-31T00:23:35;97994.75;;;16.50;100.00
68226;BME280;55045;49.410;11.030;2023-07-31T00:26:39;97993.25;;;16.58;100.00
68226;BME280;55045;49.410;11.030;2023-07-31T00:29:43;97989.69;;;16.59;100.00
68226;BME280;55045;49.410;11.030;2023-07-31T00:32:46;97985.72;;;16.54;100.00
68226;BME280;55045;49.410;11.030;2023-07-31T00:35:50;97980.63;;;16.63;100.00
68226;BME280;55045;49.410;11.030;2023-07-31T00:38:57;97995.50;;;16.63;100.00
68226;BME280;55045;49.410;11.030;2023-07-31T00:42:01;97994.75;;;16.74;100.00
68226;BME280;55045;49.410;11.030;2023-07-31T00:45:07;97994.47;;;16.65;100.00
68226;BME280;55045;49.410;11.030;2023-07-31T00:48:11;97988.84;;;16.59;100.00
68226;BME280;55045;49.410;11.030;2023-07-31T00:51:15;97991.34;;;16.60;100.00
68226;BME280;55045;49.410;11.030;2023-07-31T00:54:20;97980.63;;;16.63;100.00
68226;BME280;55045;49.410;11.030;2023-07-31T00:57:24;97990.97;;;16.54;100.00
68226;BME280;55045;49.410;11.030;2023-07-31T01:00:27;97991.19;;;16.51;100.00
68226;BME280;55045;49.410;11.030;2023-07-31T01:03:32;97982.16;;;16.55;100.00
68226;BME280;55045;49.410;11.030;2023-07-31T01:06:44;97994.31;;;16.56;100.00
68226;BME280;55045;49.410;11.030;2023-07-31T01:09:59;97992.59;;;16.43;100.00
68226;BME280;55045;49.410;11.030;2023-07-31T01:13:07;97992.63;;;16.55;100.00
68226;BME280;55045;49.410;11.030;2023-07-31T01:16:12;97979.91;;;16.61;100.00
68226;BME280;55045;49.410;11.030;2023-07-31T01:19:18;97982.91;;;16.57;100.00
68226;BME280;55045;49.410;11.030;2023-07-31T01:22:36;97986.34;;;16.57;100.00
68226;BME280;55045;49.410;11.030;2023-07-31T01:29:07;97975.53;;;16.62;100.00
68226;BME280;55045;49.410;11.030;2023-07-31T01:32:12;97973.63;;;16.64;100.00
68226;BME280;55045;49.410;11.030;2023-07-31T01:35:17;97975.81;;;16.70;100.00
68226;BME280;55045;49.410;11.030;2023-07-31T01:38:20;97969.63;;;16.71;100.00
68226;BME280;55045;49.410;11.030;2023-07-31T01:41:24;97972.00;;;16.74;100.00
68226;BME280;55045;49.410;11.030;2023-07-31T01:44:29;97972.63;;;16.78;100.00
68226;BME280;55045;49.410;11.030;2023-07-31T01:47:32;97967.84;;;16.83;100.00
68226;BME280;55045;49.410;11.030;2023-07-31T01:50:36;97967.72;;;16.73;100.00
68226;BME280;55045;49.410;11.030;2023-07-31T01:53:40;97965.75;;;16.64;100.00
68226;BME280;55045;49.410;11.030;2023-07-31T01:56:44;97964.97;;;16.75;100.00
68226;BME280;55045;49.410;11.030;2023-07-31T01:59:49;97961.06;;;16.69;100.00
68226;BME280;55045;49.410;11.030;2023-07-31T02:02:52;97962.59;;;16.72;100.00
68226;BME280;55045;49.410;11.030;2023-07-31T02:05:56;97955.53;;;16.61;100.00
68226;BME280;55045;49.410;11.030;2023-07-31T02:09:00;97939.81;;;16.61;100.00
68226;BME280;55045;49.410;11.030;2023-07-31T02:12:07;97939.38;;;16.67;100.00
68226;BME280;55045;49.410;11.030;2023-07-31T02:15:13;97936.88;;;16.65;100.00
68226;BME280;55045;49.410;11.030;2023-07-31T02:18:16;97936.00;;;16.65;100.00
68226;BME280;55045;49.410;11.030;2023-07-31T02:21:20;97930.41;;;16.58;100.00
68226;BME280;55045;49.410;11.030;2023-07-31T02:24:24;97932.25;;;16.69;100.00
68226;BME280;55045;49.410;11.030;2023-07-31T02:27:28;97931.28;;;16.70;100.00
68226;BME280;55045;49.410;11.030;2023-07-31T02:30:33;97928.50;;;16.60;100.00
68226;BME280;55045;49.410;11.030;2023-07-31T02:33:37;97933.16;;;16.57;100.00
68226;BME280;55045;49.410;11.030;2023-07-31T02:36:40;97928.75;;;16.57;100.00
68226;BME280;55045;49.410;11.030;2023-07-31T02:39:44;97928.09;;;16.42;100.00
68226;BME280;55045;49.410;11.030;2023-07-31T02:42:48;97926.09;;;16.46;100.00
68226;BME280;55045;49.410;11.030;2023-07-31T02:45:53;97932.03;;;16.37;100.00
68226;BME280;55045;49.410;11.030;2023-07-31T02:48:58;97930.38;;;16.36;100.00
68226;BME280;55045;49.410;11.030;2023-07-31T02:52:02;97935.69;;;16.34;100.00
68226;BME280;55045;49.410;11.030;2023-07-31T02:55:07;97930.38;;;16.36;100.00
68226;BME280;55045;49.410;11.030;2023-07-31T02:58:10;97928.91;;;16.32;100.00
68226;BME280;55045;49.410;11.030;2023-07-31T03:01:16;97922.66;;;16.10;100.00
68226;BME280;55045;49.410;11.030;2023-07-31T03:04:20;97928.97;;;16.19;100.00
68226;BME280;55045;49.410;11.030;2023-07-31T03:07:24;97921.13;;;16.19;100.00
68226;BME280;55045;49.410;11.030;2023-07-31T03:10:28;97928.97;;;16.19;100.00
68226;BME280;55045;49.410;11.030;2023-07-31T03:13:33;97917.53;;;16.09;100.00
68226;BME280;55045;49.410;11.030;2023-07-31T03:16:38;97921.56;;;16.13;100.00
68226;BME280;55045;49.410;11.030;2023-07-31T03:19:42;97920.16;;;16.09;100.00
68226;BME280;55045;49.410;11.030;2023-07-31T03:22:46;97924.97;;;16.02;100.00
68226;BME280;55045;49.410;11.030;2023-07-31T03:25:56;97918.91;;;16.02;100.00
68226;BME280;55045;49.410;11.030;2023-07-31T03:29:03;97910.59;;;15.97;100.00
68226;BME280;55045;49.410;11.030;2023-07-31T03:34:49;97915.88;;;15.84;100.00
68226;BME280;55045;49.410;11.030;2023-07-31T03:37:52;97913.22;;;15.97;100.00
68226;BME280;55045;49.410;11.030;2023-07-31T03:40:56;97916.22;;;15.79;100.00
68226;BME280;55045;49.410;11.030;2023-07-31T03:44:01;97922.50;;;15.77;100.00
68226;BME280;55045;49.410;11.030;2023-07-31T03:47:06;97923.75;;;15.84;100.00
68226;BME280;55045;49.410;11.030;2023-07-31T03:50:13;97914.09;;;15.84;100.00
68226;BME280;55045;49.410;11.030;2023-07-31T03:53:17;97911.94;;;15.78;100.00
68226;BME280;55045;49.410;11.030;2023-07-31T03:56:21;97918.34;;;15.74;100.00
68226;BME280;55045;49.410;11.030;2023-07-31T03:59:24;97921.03;;;15.73;100.00
68226;BME280;55045;49.410;11.030;2023-07-31T04:02:28;97911.38;;;15.86;100.00
68226;BME280;55045;49.410;11.030;2023-07-31T04:05:33;97922.28;;;15.80;100.00
68226;BME280;55045;49.410;11.030;2023-07-31T04:08:36;97927.78;;;15.64;100.00
68226;BME280;55045;49.410;11.030;2023-07-31T04:11:40;97923.22;;;15.79;100.00
68226;BME280;55045;49.410;11.030;2023-07-31T04:14:43;97931.84;;;15.68;100.00
68226;BME280;55045;49.410;11.030;2023-07-31T04:17:47;97924.00;;;15.68;100.00
68226;BME280;55045;49.410;11.030;2023-07-31T04:20:52;97919.38;;;15.72;100.00
68226;BME280;55045;49.410;11.030;2023-07-31T04:23:56;97914.31;;;15.81;100.00
68226;BME280;55045;49.410;11.030;2023-07-31T04:27:00;97912.41;;;15.83;100.00
68226;BME280;55045;49.410;11.030;2023-07-31T04:30:06;97921.13;;;15.84;100.00
68226;BME280;55045;49.410;11.030;2023-07-31T04:33:09;97928.97;;;15.84;100.00
68226;BME280;55045;49.410;11.030;2023-07-31T04:36:14;97929.16;;;15.81;100.00
68226;BME280;55045;49.410;11.030;2023-07-31T04:39:18;97927.84;;;15.75;100.00
68226;BME280;55045;49.410;11.030;2023-07-31T04:42:21;97923.09;;;15.80;100.00
68226;BME280;55045;49.410;11.030;2023-07-31T04:45:25;97918.72;;;15.81;100.00
68226;BME280;55045;49.410;11.030;2023-07-31T04:48:28;97912.94;;;15.89;100.00
68226;BME280;55045;49.410;11.030;2023-07-31T04:51:33;97909.13;;;15.93;100.00
68226;BME280;55045;49.410;11.030;2023-07-31T04:54:37;97896.97;;;16.04;100.00
68226;BME280;55045;49.410;11.030;2023-07-31T04:57:40;97892.66;;;16.03;100.00
68226;BME280;55045;49.410;11.030;2023-07-31T05:00:44;97887.09;;;16.08;100.00
68226;BME280;55045;49.410;11.030;2023-07-31T05:03:49;97892.19;;;16.09;100.00
68226;BME280;55045;49.410;11.030;2023-07-31T05:06:54;97891.97;;;16.12;100.00
68226;BME280;55045;49.410;11.030;2023-07-31T05:10:00;97886.16;;;16.20;100.00
68226;BME280;55045;49.410;11.030;2023-07-31T05:13:03;97885.59;;;16.28;100.00
68226;BME280;55045;49.410;11.030;2023-07-31T05:16:07;97896.53;;;16.33;100.00
68226;BME280;55045;49.410;11.030;2023-07-31T05:19:11;97891.09;;;16.36;100.00
68226;BME280;55045;49.410;11.030;2023-07-31T05:22:17;97897.53;;;16.43;100.00
68226;BME280;55045;49.410;11.030;2023-07-31T05:25:20;97896.00;;;16.52;100.00
68226;BME280;55045;49.410;11.030;2023-07-31T05:28:24;97892.91;;;16.47;100.00
68226;BME280;55045;49.410;11.030;2023-07-31T05:31:28;97894.72;;;16.57;100.00
68226;BME280;55045;49.410;11.030;2023-07-31T05:34:31;97894.84;;;16.56;100.00
68226;BME280;55045;49.410;11.030;2023-07-31T05:37:36;97891.84;;;16.60;100.00
68226;BME280;55045;49.410;11.030;2023-07-31T05:40:40;97890.81;;;16.74;100.00
68226;BME280;55045;49.410;11.030;2023-07-31T05:43:45;97896.78;;;16.76;100.00
68226;BME280;55045;49.410;11.030;2023-07-31T05:46:49;97901.41;;;16.84;100.00
68226;BME280;55045;49.410;11.030;2023-07-31T05:49:52;97902.25;;;16.95;100.00
68226;BME280;55045;49.410;11.030;2023-07-31T05:52:57;97902.03;;;17.10;100.00
68226;BME280;55045;49.410;11.030;2023-07-31T05:56:01;97893.94;;;17.13;100.00
68226;BME280;55045;49.410;11.030;2023-07-31T05:59:05;97889.88;;;17.20;100.00
68226;BME280;55045;49.410;11.030;2023-07-31T06:02:08;97882.34;;;17.26;100.00
68226;BME280;55045;49.410;11.030;2023-07-31T06:05:12;97884.03;;;17.27;100.00
68226;BME280;55045;49.410;11.030;2023-07-31T06:08:17;97876.38;;;17.36;100.00
68226;BME280;55045;49.410;11.030;2023-07-31T06:11:21;97872.53;;;17.51;100.00
68226;BME280;55045;49.410;11.030;2023-07-31T06:14:25;97874.22;;;17.52;100.00
68226;BME280;55045;49.410;11.030;2023-07-31T06:17:29;97877.63;;;17.64;100.00
68226;BME280;55045;49.410;11.030;2023-07-31T06:20:34;97883.84;;;17.63;100.00
68226;BME280;55045;49.410;11.030;2023-07-31T06:23:39;97891.97;;;17.71;100.00
68226;BME280;55045;49.410;11.030;2023-07-31T06:26:43;97882.13;;;17.84;100.00
68226;BME280;55045;49.410;11.030;2023-07-31T06:29:46;97899.50;;;17.96;100.00
68226;BME280;55045;49.410;11.030;2023-07-31T06:32:50;97898.75;;;18.05;100.00
68226;BME280;55045;49.410;11.030;2023-07-31T06:35:54;97895.69;;;18.21;100.00
68226;BME280;55045;49.410;11.030;2023-07-31T06:38:59;97887.13;;;18.40;100.00
68226;BME280;55045;49.410;11.030;2023-07-31T06:42:03;97889.91;;;18.48;100.00
68226;BME280;55045;49.410;11.030;2023-07-31T06:45:08;97892.81;;;18.45;100.00
68226;BME280;55045;49.410;11.030;2023-07-31T06:48:13;97888.66;;;18.42;100.00
68226;BME280;55045;49.410;11.030;2023-07-31T06:51:17;97885.00;;;18.34;100.00
68226;BME280;55045;49.410;11.030;2023-07-31T06:54:22;97891.41;;;18.41;100.00
68226;BME280;55045;49.410;11.030;2023-07-31T06:57:25;97892.13;;;18.43;100.00
68226;BME280;55045;49.410;11.030;2023-07-31T07:00:30;97888.03;;;18.50;100.00
68226;BME280;55045;49.410;11.030;2023-07-31T07:03:34;97885.81;;;18.55;100.00
68226;BME280;55045;49.410;11.030;2023-07-31T07:06:38;97890.72;;;18.81;100.00
68226;BME280;55045;49.410;11.030;2023-07-31T07:09:43;97887.22;;;19.01;100.00
68226;BME280;55045;49.410;11.030;2023-07-31T07:12:47;97888.78;;;19.13;100.00
68226;BME280;55045;49.410;11.030;2023-07-31T07:15:51;97884.09;;;19.26;100.00
68226;BME280;55045;49.410;11.030;2023-07-31T07:18:55;97886.22;;;19.33;100.00
68226;BME280;55045;49.410;11.030;2023-07-31T07:22:06;97888.97;;;19.31;100.00
68226;BME280;55045;49.410;11.030;2023-07-31T07:25:11;97886.56;;;19.18;100.00
68226;BME280;55045;49.410;11.030;2023-07-31T07:28:16;97893.34;;;19.11;100.00
68226;BME280;55045;49.410;11.030;2023-07-31T07:31:20;97891.00;;;19.18;100.00
68226;BME280;55045;49.410;11.030;2023-07-31T07:34:25;97893.22;;;19.22;100.00
68226;BME280;55045;49.410;11.030;2023-07-31T07:37:29;97900.66;;;19.17;100.00
68226;BME280;55045;49.410;11.030;2023-07-31T07:40:39;97889.63;;;19.23;100.00
68226;BME280;55045;49.410;11.030;2023-07-31T07:43:45;97892.81;;;19.27;100.00
68226;BME280;55045;49.410;11.030;2023-07-31T07:46:49;97895.28;;;19.19;100.00
68226;BME280;55045;49.410;11.030;2023-07-31T07:49:53;97892.44;;;19.32;100.00
68226;BME280;55045;49.410;11.030;2023-07-31T07:52:56;97890.31;;;19.25;100.00
68226;BME280;55045;49.410;11.030;2023-07-31T07:56:01;97903.91;;;19.40;100.00
68226;BME280;55045;49.410;11.030;2023-07-31T07:59:05;97896.44;;;19.36;100.00
68226;BME280;55045;49.410;11.030;2023-07-31T08:02:09;97890.34;;;19.35;100.00
68226;BME280;55045;49.410;11.030;2023-07-31T08:05:12;97893.72;;;19.47;100.00
68226;BME280;55045;49.410;11.030;2023-07-31T08:08:16;97891.44;;;19.63;100.00
68226;BME280;55045;49.410;11.030;2023-07-31T08:11:21;97885.34;;;19.63;100.00
68226;BME280;55045;49.410;11.030;2023-07-31T08:14:26;97885.44;;;19.61;100.00
68226;BME280;55045;49.410;11.030;2023-07-31T08:17:31;97887.81;;;19.64;100.00
68226;BME280;55045;49.410;11.030;2023-07-31T08:20:35;97888.25;;;20.08;100.00
68226;BME280;55045;49.410;11.030;2023-07-31T08:23:38;97884.25;;;20.23;100.00
68226;BME280;55045;49.410;11.030;2023-07-31T08:26:44;97877.72;;;20.18;99.62
68226;BME280;55045;49.410;11.030;2023-07-31T08:29:47;97876.22;;;20.05;100.00
68226;BME280;55045;49.410;11.030;2023-07-31T08:32:51;97861.22;;;20.35;99.92
68226;BME280;55045;49.410;11.030;2023-07-31T08:35:56;97851.22;;;20.95;97.94
68226;BME280;55045;49.410;11.030;2023-07-31T08:38:59;97837.59;;;20.99;96.09
68226;BME280;55045;49.410;11.030;2023-07-31T08:42:07;97845.31;;;21.11;95.85
68226;BME280;55045;49.410;11.030;2023-07-31T08:45:13;97845.16;;;21.12;95.28
68226;BME280;55045;49.410;11.030;2023-07-31T08:48:17;97831.47;;;21.36;94.42
68226;BME280;55045;49.410;11.030;2023-07-31T08:51:22;97823.31;;;21.30;92.96
68226;BME280;55045;49.410;11.030;2023-07-31T08:54:25;97825.16;;;21.19;94.31
68226;BME280;55045;49.410;11.030;2023-07-31T08:57:36;97825.00;;;21.48;95.78
68226;BME280;55045;49.410;11.030;2023-07-31T09:00:41;97833.84;;;21.57;94.28
68226;BME280;55045;49.410;11.030;2023-07-31T09:03:46;97823.88;;;21.51;93.35
68226;BME280;55045;49.410;11.030;2023-07-31T09:06:54;97827.19;;;21.71;93.73
68226;BME280;55045;49.410;11.030;2023-07-31T09:10:00;97815.50;;;21.73;93.20
68226;BME280;55045;49.410;11.030;2023-07-31T09:13:05;97820.94;;;21.90;91.74
68226;BME280;55045;49.410;11.030;2023-07-31T09:16:14;97823.34;;;22.01;91.21
68226;BME280;55045;49.410;11.030;2023-07-31T09:19:24;97822.72;;;22.25;93.27
68226;BME280;55045;49.410;11.030;2023-07-31T09:22:31;97821.72;;;22.26;90.35
68226;BME280;55045;49.410;11.030;2023-07-31T09:25:38;97819.66;;;22.37;89.86
68226;BME280;55045;49.410;11.030;2023-07-31T09:28:44;97820.88;;;22.43;90.09
68226;BME280;55045;49.410;11.030;2023-07-31T09:34:48;97813.06;;;22.16;89.84
68226;BME280;55045;49.410;11.030;2023-07-31T09:37:55;97816.84;;;22.65;89.40
68226;BME280;55045;49.410;11.030;2023-07-31T09:41:00;97819.81;;;22.36;87.63
68226;BME280;55045;49.410;11.030;2023-07-31T09:44:04;97805.59;;;21.93;90.12
68226;BME280;55045;49.410;11.030;2023-07-31T09:47:20;97815.88;;;22.14;90.59
68226;BME280;55045;49.410;11.030;2023-07-31T09:50:30;97812.63;;;22.20;93.61
68226;BME280;55045;49.410;11.030;2023-07-31T09:53:34;97801.53;;;22.17;90.44
68226;BME280;55045;49.410;11.030;2023-07-31T09:56:41;97789.00;;;22.01;89.99
68226;BME280;55045;49.410;11.030;2023-07-31T09:59:47;97789.75;;;21.93;89.64
68226;BME280;55045;49.410;11.030;2023-07-31T10:02:52;97781.78;;;21.85;90.70
68226;BME280;55045;49.410;11.030;2023-07-31T10:05:59;97790.91;;;21.73;91.26
68226;BME280;55045;49.410;11.030;2023-07-31T10:09:06;97783.06;;;21.81;91.37
68226;BME280;55045;49.410;11.030;2023-07-31T10:12:12;97772.28;;;21.92;92.14
68226;BME280;55045;49.410;11.030;2023-07-31T10:15:19;97760.38;;;21.70;92.79
68226;BME280;55045;49.410;11.030;2023-07-31T10:18:23;97771.00;;;21.43;93.90
68226;BME280;55045;49.410;11.030;2023-07-31T10:21:29;97763.69;;;21.54;95.32
68226;BME280;55045;49.410;11.030;2023-07-31T10:24:36;97755.03;;;21.44;93.82
68226;BME280;55045;49.410;11.030;2023-07-31T10:27:41;97755.78;;;21.54;94.50
68226;BME280;55045;49.410;11.030;2023-07-31T10:30:45;97749.97;;;21.69;93.79
68226;BME280;55045;49.410;11.030;2023-07-31T10:33:49;97742.69;;;22.06;90.97
68226;BME280;55045;49.410;11.030;2023-07-31T10:37:25;97740.53;;;22.28;88.83
68226;BME280;55045;49.410;11.030;2023-07-31T10:40:30;97742.31;;;22.27;89.22
68226;BME280;55045;49.410;11.030;2023-07-31T10:43:33;97735.16;;;22.46;90.36
68226;BME280;55045;49.410;11.030;2023-07-31T10:46:37;97722.50;;;22.23;89.52
68226;BME280;55045;49.410;11.030;2023-07-31T10:49:44;97733.16;;;22.13;90.60
68226;BME280;55045;49.410;11.030;2023-07-31T10:52:51;97720.34;;;22.27;89.78
68226;BME280;55045;49.410;11.030;2023-07-31T10:55:58;97715.84;;;22.87;89.57
68226;BME280;55045;49.410;11.030;2023-07-31T10:59:02;97712.34;;;22.79;88.84
68226;BME280;55045;49.410;11.030;2023-07-31T11:02:24;97703.44;;;22.80;87.71
68226;BME280;55045;49.410;11.030;2023-07-31T11:05:45;97718.00;;;22.50;88.13
68226;BME280;55045;49.410;11.030;2023-07-31T11:08:51;97699.81;;;22.38;90.54
68226;BME280;55045;49.410;11.030;2023-07-31T11:11:55;97701.25;;;22.33;88.57
68226;BME280;55045;49.410;11.030;2023-07-31T11:14:59;97697.38;;;22.19;89.82
68226;BME280;55045;49.410;11.030;2023-07-31T11:18:03;97693.63;;;22.04;86.60
68226;BME280;55045;49.410;11.030;2023-07-31T11:21:08;97691.41;;;21.91;87.18
68226;BME280;55045;49.410;11.030;2023-07-31T11:24:13;97690.81;;;21.97;86.39
68226;BME280;55045;49.410;11.030;2023-07-31T11:27:17;97689.88;;;22.06;88.34
68226;BME280;55045;49.410;11.030;2023-07-31T11:30:20;97693.44;;;21.97;88.10
68226;BME280;55045;49.410;11.030;2023-07-31T11:33:25;97700.22;;;22.00;88.43
68226;BME280;55045;49.410;11.030;2023-07-31T11:36:28;97703.66;;;22.18;87.64
68226;BME280;55045;49.410;11.030;2023-07-31T11:39:34;97707.97;;;22.19;86.15
68226;BME280;55045;49.410;11.030;2023-07-31T11:42:37;97694.22;;;22.16;88.07
68226;BME280;55045;49.410;11.030;2023-07-31T11:45:41;97699.66;;;22.14;89.77
68226;BME280;55045;49.410;11.030;2023-07-31T11:48:45;97701.38;;;21.97;87.09
68226;BME280;55045;49.410;11.030;2023-07-31T11:51:49;97692.06;;;21.93;88.07
68226;BME280;55045;49.410;11.030;2023-07-31T11:54:53;97691.66;;;22.06;90.22
68226;BME280;55045;49.410;11.030;2023-07-31T11:57:57;97691.13;;;22.20;87.65
68226;BME280;55045;49.410;11.030;2023-07-31T12:01:02;97684.59;;;22.06;89.53
68226;BME280;55045;49.410;11.030;2023-07-31T12:04:07;97687.94;;;22.17;89.74
68226;BME280;55045;49.410;11.030;2023-07-31T12:07:10;97690.31;;;22.02;90.35
68226;BME280;55045;49.410;11.030;2023-07-31T12:10:28;97679.31;;;22.06;88.42
68226;BME280;55045;49.410;11.030;2023-07-31T12:13:33;97685.72;;;22.30;88.50
68226;BME280;55045;49.410;11.030;2023-07-31T12:16:39;97677.38;;;22.51;88.16
68226;BME280;55045;49.410;11.030;2023-07-31T12:19:43;97682.25;;;22.37;86.36
68226;BME280;55045;49.410;11.030;2023-07-31T12:22:47;97679.06;;;22.26;88.46
68226;BME280;55045;49.410;11.030;2023-07-31T12:26:00;97671.84;;;22.28;85.62
68226;BME280;55045;49.410;11.030;2023-07-31T12:29:09;97663.59;;;22.31;84.38
68226;BME280;55045;49.410;11.030;2023-07-31T12:32:21;97646.50;;;22.51;87.12
68226;BME280;55045;49.410;11.030;2023-07-31T12:35:34;97655.66;;;22.73;85.21
68226;BME280;55045;49.410;11.030;2023-07-31T12:38:38;97649.63;;;22.89;85.69
68226;BME280;55045;49.410;11.030;2023-07-31T12:41:43;97645.16;;;22.89;83.36
68226;BME280;55045;49.410;11.030;2023-07-31T12:44:46;97630.09;;;22.90;83.82
68226;BME280;55045;49.410;11.030;2023-07-31T12:47:50;97636.03;;;22.84;84.62
68226;BME280;55045;49.410;11.030;2023-07-31T12:50:54;97631.34;;;22.78;84.10
68226;BME280;55045;49.410;11.030;2023-07-31T12:53:58;97620.63;;;22.71;84.88
68226;BME280;55045;49.410;11.030;2023-07-31T12:57:03;97616.84;;;22.82;84.73
68226;BME280;55045;49.410;11.030;2023-07-31T13:00:08;97612.25;;;22.92;86.01
68226;BME280;55045;49.410;11.030;2023-07-31T13:03:14;97615.22;;;22.97;84.13
68226;BME280;55045;49.410;11.030;2023-07-31T13:06:18;97606.81;;;22.93;85.47
68226;BME280;55045;49.410;11.030;2023-07-31T13:09:21;97597.38;;;22.91;83.29
68226;BME280;55045;49.410;11.030;2023-07-31T13:12:26;97591.25;;;22.98;84.20
68226;BME280;55045;49.410;11.030;2023-07-31T13:15:30;97599.03;;;23.08;85.73
68226;BME280;55045;49.410;11.030;2023-07-31T13:18:36;97596.41;;;23.41;85.78
68226;BME280;55045;49.410;11.030;2023-07-31T13:21:40;97591.75;;;23.59;82.68
68226;BME280;55045;49.410;11.030;2023-07-31T13:24:44;97589.75;;;23.53;82.21
68226;BME280;55045;49.410;11.030;2023-07-31T13:27:49;97578.19;;;23.46;80.36
68226;BME280;55045;49.410;11.030;2023-07-31T13:30:56;97577.81;;;23.81;83.23
68226;BME280;55045;49.410;11.030;2023-07-31T13:33:59;97562.50;;;24.00;79.39
68226;BME280;55045;49.410;11.030;2023-07-31T13:37:03;97571.53;;;23.74;79.21
68226;BME280;55045;49.410;11.030;2023-07-31T13:40:08;97563.59;;;23.74;78.91
68226;BME280;55045;49.410;11.030;2023-07-31T13:43:14;97571.84;;;23.79;81.22
68226;BME280;55045;49.410;11.030;2023-07-31T13:46:17;97571.06;;;23.63;79.45
68226;BME280;55045;49.410;11.030;2023-07-31T13:49:21;97568.41;;;23.46;79.01
68226;BME280;55045;49.410;11.030;2023-07-31T13:52:26;97555.53;;;23.35;78.76
68226;BME280;55045;49.410;11.030;2023-07-31T13:55:30;97544.94;;;23.43;79.60
68226;BME280;55045;49.410;11.030;2023-07-31T13:58:35;97533.00;;;23.55;76.87
68226;BME280;55045;49.410;11.030;2023-07-31T14:01:39;97529.59;;;23.94;80.11
68226;BME280;55045;49.410;11.030;2023-07-31T14:04:42;97537.63;;;24.09;79.16
68226;BME280;55045;49.410;11.030;2023-07-31T14:07:46;97528.22;;;24.06;81.71
68226;BME280;55045;49.410;11.030;2023-07-31T14:10:50;97529.72;;;24.01;78.11
68226;BME280;55045;49.410;11.030;2023-07-31T14:13:55;97515.13;;;24.05;77.33
68226;BME280;55045;49.410;11.030;2023-07-31T14:16:59;97519.84;;;23.87;76.67
68226;BME280;55045;49.410;11.030;2023-07-31T14:20:04;97520.38;;;23.82;78.32
68226;BME280;55045;49.410;11.030;2023-07-31T14:23:12;97531.25;;;23.95;79.18
68226;BME280;55045;49.410;11.030;2023-07-31T14:26:15;97527.72;;;24.03;77.71
68226;BME280;55045;49.410;11.030;2023-07-31T14:29:21;97536.88;;;23.92;77.83
68226;BME280;55045;49.410;11.030;2023-07-31T14:32:26;97529.19;;;23.58;75.51
68226;BME280;55045;49.410;11.030;2023-07-31T14:35:30;97535.16;;;23.60;76.62
68226;BME280;55045;49.410;11.030;2023-07-31T14:38:34;97532.81;;;23.57;75.28
68226;BME280;55045;49.410;11.030;2023-07-31T14:41:37;97537.13;;;23.50;77.67
68226;BME280;55045;49.410;11.030;2023-07-31T14:44:43;97528.41;;;23.41;76.42
68226;BME280;55045;49.410;11.030;2023-07-31T14:47:49;97515.66;;;23.45;78.95
68226;BME280;55045;49.410;11.030;2023-07-31T14:50:52;97512.38;;;23.35;78.89
68226;BME280;55045;49.410;11.030;2023-07-31T14:53:56;97515.84;;;23.27;79.19
68226;BME280;55045;49.410;11.030;2023-07-31T14:57:00;97514.06;;;23.19;79.12
68226;BME280;55045;49.410;11.030;2023-07-31T15:00:07;97512.75;;;23.15;80.85
68226;BME280;55045;49.410;11.030;2023-07-31T15:03:11;97506.78;;;23.05;82.77
68226;BME280;55045;49.410;11.030;2023-07-31T15:06:15;97504.66;;;23.01;81.80
68226;BME280;55045;49.410;11.030;2023-07-31T15:09:18;97510.44;;;22.96;81.60
68226;BME280;55045;49.410;11.030;2023-07-31T15:12:22;97502.84;;;22.85;82.14
68226;BME280;55045;49.410;11.030;2023-07-31T15:15:27;97504.16;;;22.73;82.44
68226;BME280;55045;49.410;11.030;2023-07-31T15:18:31;97496.88;;;22.75;82.91
68226;BME280;55045;49.410;11.030;2023-07-31T15:21:35;97498.56;;;22.84;81.88
68226;BME280;55045;49.410;11.030;2023-07-31T15:24:41;97495.72;;;22.69;82.23
68226;BME280;55045;49.410;11.030;2023-07-31T15:27:46;97487.44;;;22.64;85.12
68226;BME280;55045;49.410;11.030;2023-07-31T15:34:48;97477.03;;;22.54;85.01
68226;BME280;55045;49.410;11.030;2023-07-31T15:37:53;97474.25;;;22.64;84.82
68226;BME280;55045;49.410;11.030;2023-07-31T15:40:57;97473.41;;;22.63;86.29
68226;BME280;55045;49.410;11.030;2023-07-31T15:44:00;97471.25;;;22.75;85.64
68226;BME280;55045;49.410;11.030;2023-07-31T15:47:04;97459.69;;;22.68;87.64
68226;BME280;55045;49.410;11.030;2023-07-31T15:50:09;97456.38;;;22.74;85.45
68226;BME280;55045;49.410;11.030;2023-07-31T15:53:13;97466.97;;;22.74;86.17
68226;BME280;55045;49.410;11.030;2023-07-31T15:56:17;97453.25;;;22.79;86.01
68226;BME280;55045;49.410;11.030;2023-07-31T15:59:21;97448.63;;;22.81;84.85
68226;BME280;55045;49.410;11.030;2023-07-31T16:02:24;97446.16;;;22.87;85.28
68226;BME280;55045;49.410;11.030;2023-07-31T16:05:29;97452.91;;;23.06;84.13
68226;BME280;55045;49.410;11.030;2023-07-31T16:08:33;97443.66;;;23.10;83.32
68226;BME280;55045;49.410;11.030;2023-07-31T16:11:43;97445.59;;;23.16;83.47
68226;BME280;55045;49.410;11.030;2023-07-31T16:14:47;97445.16;;;23.05;82.27